TimeCDT,TemperatureF,Dew PointF,Humidity,Sea Level PressureIn,VisibilityMPH,Wind Direction,Wind SpeedMPH,Gust SpeedMPH,PrecipitationIn,Events,Conditions,WindDirDegrees,DateUTC
12:35 AM,62.6,62.6,100,29.74,1.8,NE,10.4,-,0.03,Rain,Light Rain,50,2012-10-01 05:35:00
12:55 AM,62.6,60.8,94,29.74,2.0,NE,6.9,-,0.06,Rain,Light Rain,40,2012-10-01 05:55:00
1:15 AM,62.6,60.8,94,29.73,2.5,NE,9.2,-,0.01,Rain,Light Rain,40,2012-10-01 06:15:00
1:35 AM,62.6,60.8,94,29.72,3.0,North,5.8,-,0.01,Rain,Light Rain,350,2012-10-01 06:35:00
1:55 AM,62.6,60.8,94,29.71,5.0,NNE,8.1,-,0.03,Rain,Light Rain,20,2012-10-01 06:55:00
2:15 AM,62.6,60.8,94,29.71,2.0,NE,9.2,-,0.03,Rain,Rain,40,2012-10-01 07:15:00
2:35 AM,60.8,59.0,94,29.69,2.5,NE,9.2,-,0.05,Rain,Light Rain,40,2012-10-01 07:35:00
2:55 AM,60.8,59.0,94,29.68,2.0,NE,6.9,-,0.07,Rain,Light Rain,40,2012-10-01 07:55:00
3:15 AM,60.8,59.0,94,29.67,3.0,NE,10.4,-,N/A,Rain,Light Rain,40,2012-10-01 08:15:00
3:55 AM,60.8,59.0,94,29.67,3.0,NNE,5.8,-,0.01,Rain,Light Rain,30,2012-10-01 08:55:00
4:15 AM,60.8,59.0,94,29.67,4.0,NNE,5.8,-,0.01,Rain,Light Rain,30,2012-10-01 09:15:00
4:35 AM,60.8,59.0,94,29.66,3.0,NNE,5.8,-,0.03,Rain,Light Rain,30,2012-10-01 09:35:00
4:55 AM,60.8,59.0,94,29.66,4.0,NE,5.8,-,0.04,Rain,Light Rain,40,2012-10-01 09:55:00
5:15 AM,60.8,59.0,94,29.64,1.2,NNE,8.1,-,0.14,Rain,Heavy Rain,30,2012-10-01 10:15:00
5:35 AM,60.8,59.0,94,29.65,2.5,NNE,8.1,-,0.15,Rain,Light Rain,30,2012-10-01 10:35:00
5:55 AM,60.8,59.0,94,29.64,5.0,NE,5.8,-,0.16,Rain,Light Rain,40,2012-10-01 10:55:00
6:15 AM,60.8,59.0,94,29.64,10.0,NNE,8.1,-,N/A,Rain,Light Rain,30,2012-10-01 11:15:00
6:35 AM,62.6,60.8,94,29.65,5.0,NNE,5.8,-,0.02,Rain,Light Rain,30,2012-10-01 11:35:00
6:55 AM,60.8,59.0,94,29.65,1.2,ENE,8.1,-,0.30,Rain,Rain,70,2012-10-01 11:55:00
7:15 AM,62.6,60.8,94,29.65,3.0,North,6.9,-,0.02,Rain,Rain,10,2012-10-01 12:15:00
7:35 AM,62.6,60.8,94,29.66,2.0,ENE,6.9,-,0.09,Rain,Light Rain,60,2012-10-01 12:35:00
7:55 AM,62.6,62.6,100,29.64,7.0,NNE,5.8,-,0.13,Rain,Light Rain,30,2012-10-01 12:55:00
8:15 AM,62.6,62.6,100,29.64,7.0,NE,8.1,-,N/A,Rain,Light Rain,50,2012-10-01 13:15:00
8:35 AM,62.6,62.6,100,29.64,9.0,NE,6.9,-,N/A,Rain,Light Rain,40,2012-10-01 13:35:00
8:55 AM,62.6,62.6,100,29.64,7.0,NNE,5.8,-,N/A,,Overcast,30,2012-10-01 13:55:00
9:15 AM,64.4,62.6,94,29.63,10.0,North,5.8,-,N/A,,Overcast,10,2012-10-01 14:15:00
9:35 AM,64.4,64.4,100,29.63,5.0,NNE,5.8,-,0.04,Rain,Light Rain,30,2012-10-01 14:35:00
9:55 AM,66.2,64.4,94,29.63,8.0,NNE,4.6,-,0.04,Rain,Light Rain,30,2012-10-01 14:55:00
10:15 AM,66.2,66.2,100,29.63,10.0,NNE,3.5,-,N/A,,Mostly Cloudy,30,2012-10-01 15:15:00
10:35 AM,68.0,66.2,94,29.62,10.0,NE,4.6,-,N/A,,Mostly Cloudy,40,2012-10-01 15:35:00
10:55 AM,69.8,68.0,94,29.61,10.0,North,4.6,-,N/A,,Overcast,360,2012-10-01 15:55:00
11:15 AM,68.0,66.2,94,29.61,7.0,North,3.5,-,N/A,Rain,Light Rain,10,2012-10-01 16:15:00
11:35 AM,68.0,68.0,100,29.60,2.5,NNE,3.5,-,0.01,Rain,Light Rain,20,2012-10-01 16:35:00
11:55 AM,68.0,68.0,100,29.59,5.0,Calm,Calm,-,0.01,Rain,Light Rain,0,2012-10-01 16:55:00
12:15 PM,75.2,71.6,89,29.58,10.0,South,5.8,16.1,N/A,,Mostly Cloudy,180,2012-10-01 17:15:00
12:35 PM,75.2,69.8,83,29.58,10.0,SSW,9.2,-,N/A,,Mostly Cloudy,200,2012-10-01 17:35:00
1:15 PM,77.0,69.8,78,29.56,10.0,SSW,8.1,18.4,N/A,,Mostly Cloudy,210,2012-10-01 18:15:00
1:35 PM,80.6,69.8,70,29.55,10.0,SSW,9.2,18.4,N/A,,Mostly Cloudy,210,2012-10-01 18:35:00
1:55 PM,77.0,69.8,78,29.55,10.0,South,8.1,17.3,N/A,Rain,Light Rain,190,2012-10-01 18:55:00
2:15 PM,77.0,71.6,83,29.55,5.0,South,8.1,20.7,N/A,Rain,Light Rain,180,2012-10-01 19:15:00
2:35 PM,78.8,71.6,78,29.54,10.0,South,8.1,19.6,N/A,,Scattered Clouds,170,2012-10-01 19:35:00
2:55 PM,80.6,69.8,70,29.53,10.0,South,6.9,20.7,N/A,,Scattered Clouds,170,2012-10-01 19:55:00
3:15 PM,80.6,69.8,70,29.54,10.0,South,10.4,20.7,N/A,,Mostly Cloudy,190,2012-10-01 20:15:00
3:35 PM,78.8,69.8,74,29.54,10.0,SSW,11.5,-,N/A,,Mostly Cloudy,200,2012-10-01 20:35:00
3:55 PM,80.6,68.0,65,29.54,10.0,SSW,9.2,18.4,N/A,,Scattered Clouds,200,2012-10-01 20:55:00
4:15 PM,80.6,68.0,65,29.54,10.0,South,4.6,17.3,N/A,,Mostly Cloudy,180,2012-10-01 21:15:00
4:35 PM,78.8,68.0,69,29.54,10.0,South,8.1,-,N/A,,Mostly Cloudy,190,2012-10-01 21:35:00
4:55 PM,77.0,71.6,83,29.55,3.0,South,8.1,16.1,0.01,Rain,Light Rain,190,2012-10-01 21:55:00
5:15 PM,75.2,71.6,89,29.55,10.0,SW,5.8,-,N/A,,Mostly Cloudy,220,2012-10-01 22:15:00
5:35 PM,75.2,71.6,89,29.56,10.0,West,6.9,-,N/A,,Scattered Clouds,260,2012-10-01 22:35:00
5:55 PM,75.2,71.6,89,29.56,10.0,Calm,Calm,-,N/A,,Mostly Cloudy,0,2012-10-01 22:55:00
6:15 PM,73.4,71.6,94,29.56,10.0,WSW,3.5,-,N/A,,Overcast,240,2012-10-01 23:15:00
6:35 PM,73.4,71.6,94,29.56,10.0,Calm,Calm,-,N/A,Rain,Light Rain,0,2012-10-01 23:35:00
6:55 PM,73.4,71.6,94,29.57,10.0,Calm,Calm,-,N/A,,Overcast,0,2012-10-01 23:55:00
7:15 PM,73.4,71.6,94,29.58,10.0,West,3.5,-,N/A,Rain,Light Rain,280,2012-10-02 00:15:00
7:55 PM,73.4,69.8,88,29.61,10.0,WSW,3.5,-,N/A,,Overcast,240,2012-10-02 00:55:00
8:15 PM,71.6,69.8,94,29.61,10.0,WSW,3.5,-,N/A,,Overcast,250,2012-10-02 01:15:00
8:35 PM,71.6,68.0,88,29.62,10.0,WSW,4.6,-,N/A,,Overcast,250,2012-10-02 01:35:00
8:55 PM,71.6,68.0,88,29.62,10.0,Calm,Calm,-,N/A,,Mostly Cloudy,0,2012-10-02 01:55:00
9:15 PM,69.8,66.2,88,29.64,10.0,WSW,4.6,-,N/A,,Mostly Cloudy,240,2012-10-02 02:15:00
9:35 PM,71.6,66.2,83,29.64,10.0,WSW,8.1,-,N/A,,Overcast,240,2012-10-02 02:35:00
9:55 PM,69.8,66.2,88,29.66,10.0,WSW,3.5,-,N/A,,Overcast,240,2012-10-02 02:55:00
10:15 PM,69.8,66.2,88,29.66,10.0,WSW,4.6,-,N/A,,Overcast,240,2012-10-02 03:15:00
10:35 PM,69.8,66.2,88,29.66,10.0,West,6.9,-,N/A,,Overcast,260,2012-10-02 03:35:00
10:55 PM,68.0,66.2,94,29.67,10.0,West,6.9,-,N/A,,Overcast,260,2012-10-02 03:55:00
11:15 PM,68.0,64.4,88,29.66,10.0,West,8.1,-,N/A,,Overcast,260,2012-10-02 04:15:00
11:35 PM,68.0,64.4,88,29.66,10.0,West,5.8,-,N/A,,Overcast,260,2012-10-02 04:35:00
11:55 PM,68.0,64.4,88,29.66,10.0,WSW,4.6,-,N/A,,Overcast,250,2012-10-02 04:55:00